sensor_id;sensor_type;location;lat;lon;timestamp;P1;durP1;ratioP1;P2;durP2;ratioP2
84444;SDS011;74683;48.402;10.596;2023-12-20T00:00:56;2.13;;;1.70;;
84444;SDS011;74683;48.402;10.596;2023-12-20T00:03:23;3.70;;;1.63;;
84444;SDS011;74683;48.402;10.596;2023-12-20T00:05:50;2.85;;;1.42;;
84444;SDS011;74683;48.402;10.596;2023-12-20T00:08:17;3.83;;;1.73;;
84444;SDS011;74683;48.402;10.596;2023-12-20T00:10:44;3.78;;;1.80;;
84444;SDS011;74683;48.402;10.596;2023-12-20T00:13:10;3.13;;;1.58;;
84444;SDS011;74683;48.402;10.596;2023-12-20T00:15:37;4.30;;;1.65;;
84444;SDS011;74683;48.402;10.596;2023-12-20T00:18:04;4.47;;;2.10;;
84444;SDS011;74683;48.402;10.596;2023-12-20T00:20:31;4.20;;;1.75;;
84444;SDS011;74683;48.402;10.596;2023-12-20T00:22:58;4.05;;;1.70;;
84444;SDS011;74683;48.402;10.596;2023-12-20T00:25:25;3.05;;;1.38;;
84444;SDS011;74683;48.402;10.596;2023-12-20T00:27:51;1.85;;;0.98;;
84444;SDS011;74683;48.402;10.596;2023-12-20T00:30:18;3.70;;;1.63;;
84444;SDS011;74683;48.402;10.596;2023-12-20T00:32:45;2.88;;;1.35;;
84444;SDS011;74683;48.402;10.596;2023-12-20T00:35:15;2.25;;;1.23;;
84444;SDS011;74683;48.402;10.596;2023-12-20T00:37:42;2.60;;;1.23;;
84444;SDS011;74683;48.402;10.596;2023-12-20T00:40:10;3.90;;;1.38;;
84444;SDS011;74683;48.402;10.596;2023-12-20T00:42:37;2.90;;;1.40;;
84444;SDS011;74683;48.402;10.596;2023-12-20T00:45:04;2.15;;;1.23;;
84444;SDS011;74683;48.402;10.596;2023-12-20T00:47:31;3.75;;;1.70;;
84444;SDS011;74683;48.402;10.596;2023-12-20T00:49:58;2.08;;;1.10;;
84444;SDS011;74683;48.402;10.596;2023-12-20T00:52:25;1.95;;;1.20;;
84444;SDS011;74683;48.402;10.596;2023-12-20T00:54:51;2.00;;;1.13;;
84444;SDS011;74683;48.402;10.596;2023-12-20T00:57:18;2.97;;;1.35;;
84444;SDS011;74683;48.402;10.596;2023-12-20T00:59:45;3.35;;;1.40;;
84444;SDS011;74683;48.402;10.596;2023-12-20T01:02:11;1.08;;;0.60;;
84444;SDS011;74683;48.402;10.596;2023-12-20T01:04:38;3.22;;;1.42;;
84444;SDS011;74683;48.402;10.596;2023-12-20T01:07:05;1.98;;;1.02;;
84444;SDS011;74683;48.402;10.596;2023-12-20T01:09:32;2.22;;;1.15;;
84444;SDS011;74683;48.402;10.596;2023-12-20T01:11:58;3.05;;;1.20;;
84444;SDS011;74683;48.402;10.596;2023-12-20T01:14:25;2.40;;;1.20;;
84444;SDS011;74683;48.402;10.596;2023-12-20T01:16:52;2.50;;;1.08;;
84444;SDS011;74683;48.402;10.596;2023-12-20T01:19:18;3.80;;;1.50;;
84444;SDS011;74683;48.402;10.596;2023-12-20T01:21:45;2.33;;;1.20;;
84444;SDS011;74683;48.402;10.596;2023-12-20T01:24:11;3.75;;;1.50;;
84444;SDS011;74683;48.402;10.596;2023-12-20T01:26:38;3.50;;;1.27;;
84444;SDS011;74683;48.402;10.596;2023-12-20T01:29:05;2.50;;;1.20;;
84444;SDS011;74683;48.402;10.596;2023-12-20T01:31:31;3.00;;;1.30;;
84444;SDS011;74683;48.402;10.596;2023-12-20T01:33:58;3.88;;;1.55;;
84444;SDS011;74683;48.402;10.596;2023-12-20T01:36:24;2.72;;;1.38;;
84444;SDS011;74683;48.402;10.596;2023-12-20T01:38:51;3.45;;;1.10;;
84444;SDS011;74683;48.402;10.596;2023-12-20T01:41:18;2.85;;;1.20;;
84444;SDS011;74683;48.402;10.596;2023-12-20T01:43:45;3.25;;;1.30;;
84444;SDS011;74683;48.402;10.596;2023-12-20T01:46:17;2.30;;;1.13;;
84444;SDS011;74683;48.402;10.596;2023-12-20T01:48:45;2.50;;;1.30;;
84444;SDS011;74683;48.402;10.596;2023-12-20T01:51:11;2.55;;;1.30;;
84444;SDS011;74683;48.402;10.596;2023-12-20T01:53:38;3.72;;;1.08;;
84444;SDS011;74683;48.402;10.596;2023-12-20T01:56:05;3.05;;;1.38;;
84444;SDS011;74683;48.402;10.596;2023-12-20T01:58:33;1.77;;;1.20;;
84444;SDS011;74683;48.402;10.596;2023-12-20T02:01:00;1.48;;;0.90;;
84444;SDS011;74683;48.402;10.596;2023-12-20T02:03:27;2.42;;;1.00;;
84444;SDS011;74683;48.402;10.596;2023-12-20T02:05:54;1.70;;;0.77;;
84444;SDS011;74683;48.402;10.596;2023-12-20T02:08:21;3.42;;;0.95;;
84444;SDS011;74683;48.402;10.596;2023-12-20T02:10:48;2.95;;;1.40;;
84444;SDS011;74683;48.402;10.596;2023-12-20T02:13:15;1.80;;;1.08;;
84444;SDS011;74683;48.402;10.596;2023-12-20T02:15:42;2.63;;;1.20;;
84444;SDS011;74683;48.402;10.596;2023-12-20T02:18:10;1.20;;;0.82;;
84444;SDS011;74683;48.402;10.596;2023-12-20T02:20:37;1.95;;;1.02;;
84444;SDS011;74683;48.402;10.596;2023-12-20T02:23:05;1.13;;;0.85;;
84444;SDS011;74683;48.402;10.596;2023-12-20T02:25:32;2.95;;;0.90;;
84444;SDS011;74683;48.402;10.596;2023-12-20T02:27:58;2.13;;;1.15;;
84444;SDS011;74683;48.402;10.596;2023-12-20T02:30:25;2.05;;;0.80;;
84444;SDS011;74683;48.402;10.596;2023-12-20T02:32:52;3.05;;;1.40;;
84444;SDS011;74683;48.402;10.596;2023-12-20T02:35:20;3.45;;;1.30;;
84444;SDS011;74683;48.402;10.596;2023-12-20T02:37:46;3.70;;;1.27;;
84444;SDS011;74683;48.402;10.596;2023-12-20T02:40:13;1.95;;;1.13;;
84444;SDS011;74683;48.402;10.596;2023-12-20T02:42:40;3.47;;;1.60;;
84444;SDS011;74683;48.402;10.596;2023-12-20T02:45:07;3.70;;;1.73;;
84444;SDS011;74683;48.402;10.596;2023-12-20T02:47:33;3.70;;;1.65;;
84444;SDS011;74683;48.402;10.596;2023-12-20T02:50:00;2.78;;;1.77;;
84444;SDS011;74683;48.402;10.596;2023-12-20T02:52:28;3.45;;;1.80;;
84444;SDS011;74683;48.402;10.596;2023-12-20T02:54:55;2.50;;;1.58;;
84444;SDS011;74683;48.402;10.596;2023-12-20T02:57:22;2.03;;;1.20;;
84444;SDS011;74683;48.402;10.596;2023-12-20T02:59:48;3.05;;;1.40;;
84444;SDS011;74683;48.402;10.596;2023-12-20T03:02:15;2.58;;;1.60;;
84444;SDS011;74683;48.402;10.596;2023-12-20T03:04:42;2.10;;;1.00;;
84444;SDS011;74683;48.402;10.596;2023-12-20T03:07:08;3.20;;;1.60;;
84444;SDS011;74683;48.402;10.596;2023-12-20T03:09:35;2.65;;;1.70;;
84444;SDS011;74683;48.402;10.596;2023-12-20T03:12:21;6.57;;;1.80;;
84444;SDS011;74683;48.402;10.596;2023-12-20T03:14:48;2.67;;;1.90;;
84444;SDS011;74683;48.402;10.596;2023-12-20T03:17:15;2.70;;;1.17;;
84444;SDS011;74683;48.402;10.596;2023-12-20T03:19:42;3.58;;;1.80;;
84444;SDS011;74683;48.402;10.596;2023-12-20T03:22:09;7.97;;;2.60;;
84444;SDS011;74683;48.402;10.596;2023-12-20T03:24:35;2.58;;;1.45;;
84444;SDS011;74683;48.402;10.596;2023-12-20T03:27:02;2.78;;;1.38;;
84444;SDS011;74683;48.402;10.596;2023-12-20T03:29:29;4.35;;;1.85;;
84444;SDS011;74683;48.402;10.596;2023-12-20T03:31:55;3.03;;;1.70;;
84444;SDS011;74683;48.402;10.596;2023-12-20T03:34:22;2.80;;;1.77;;
84444;SDS011;74683;48.402;10.596;2023-12-20T03:36:49;3.75;;;1.98;;
84444;SDS011;74683;48.402;10.596;2023-12-20T03:39:15;2.95;;;1.55;;
84444;SDS011;74683;48.402;10.596;2023-12-20T03:41:42;3.03;;;1.90;;
84444;SDS011;74683;48.402;10.596;2023-12-20T03:44:09;2.10;;;1.33;;
84444;SDS011;74683;48.402;10.596;2023-12-20T03:46:35;3.42;;;1.88;;
84444;SDS011;74683;48.402;10.596;2023-12-20T03:49:02;2.05;;;1.35;;
84444;SDS011;74683;48.402;10.596;2023-12-20T03:51:30;3.75;;;1.75;;
84444;SDS011;74683;48.402;10.596;2023-12-20T03:53:57;4.05;;;1.92;;
84444;SDS011;74683;48.402;10.596;2023-12-20T03:56:23;4.85;;;1.98;;
84444;SDS011;74683;48.402;10.596;2023-12-20T03:58:49;4.00;;;1.63;;
84444;SDS011;74683;48.402;10.596;2023-12-20T04:01:16;3.85;;;1.55;;
84444;SDS011;74683;48.402;10.596;2023-12-20T04:03:43;4.53;;;1.77;;
84444;SDS011;74683;48.402;10.596;2023-12-20T04:06:09;3.75;;;1.90;;
84444;SDS011;74683;48.402;10.596;2023-12-20T04:08:36;4.20;;;2.40;;
84444;SDS011;74683;48.402;10.596;2023-12-20T04:11:03;2.47;;;1.40;;
84444;SDS011;74683;48.402;10.596;2023-12-20T04:13:29;2.67;;;1.40;;
84444;SDS011;74683;48.402;10.596;2023-12-20T04:15:56;3.88;;;2.15;;
84444;SDS011;74683;48.402;10.596;2023-12-20T04:18:22;2.50;;;1.33;;
84444;SDS011;74683;48.402;10.596;2023-12-20T04:20:49;3.58;;;1.88;;
84444;SDS011;74683;48.402;10.596;2023-12-20T04:23:17;2.60;;;1.60;;
84444;SDS011;74683;48.402;10.596;2023-12-20T04:25:44;4.10;;;1.73;;
84444;SDS011;74683;48.402;10.596;2023-12-20T04:28:10;3.22;;;1.80;;
84444;SDS011;74683;48.402;10.596;2023-12-20T04:30:37;2.70;;;1.88;;
84444;SDS011;74683;48.402;10.596;2023-12-20T04:33:04;3.42;;;1.88;;
84444;SDS011;74683;48.402;10.596;2023-12-20T04:35:31;3.42;;;1.73;;
84444;SDS011;74683;48.402;10.596;2023-12-20T04:37:57;4.07;;;1.95;;
84444;SDS011;74683;48.402;10.596;2023-12-20T04:40:24;2.90;;;1.75;;
84444;SDS011;74683;48.402;10.596;2023-12-20T04:42:50;5.07;;;1.95;;
84444;SDS011;74683;48.402;10.596;2023-12-20T04:45:17;4.97;;;1.73;;
84444;SDS011;74683;48.402;10.596;2023-12-20T04:47:46;3.53;;;2.05;;
84444;SDS011;74683;48.402;10.596;2023-12-20T04:50:13;2.60;;;1.42;;
84444;SDS011;74683;48.402;10.596;2023-12-20T04:52:41;3.63;;;1.40;;
84444;SDS011;74683;48.402;10.596;2023-12-20T04:55:08;3.25;;;1.38;;
84444;SDS011;74683;48.402;10.596;2023-12-20T04:57:35;1.73;;;1.00;;
84444;SDS011;74683;48.402;10.596;2023-12-20T05:00:01;2.42;;;1.17;;
84444;SDS011;74683;48.402;10.596;2023-12-20T05:02:30;2.67;;;1.17;;
84444;SDS011;74683;48.402;10.596;2023-12-20T05:04:56;3.88;;;1.52;;
84444;SDS011;74683;48.402;10.596;2023-12-20T05:07:23;2.65;;;1.48;;
84444;SDS011;74683;48.402;10.596;2023-12-20T05:09:49;1.92;;;1.00;;
84444;SDS011;74683;48.402;10.596;2023-12-20T05:12:16;1.77;;;1.00;;
84444;SDS011;74683;48.402;10.596;2023-12-20T05:14:42;2.10;;;1.00;;
84444;SDS011;74683;48.402;10.596;2023-12-20T05:17:09;2.08;;;1.10;;
84444;SDS011;74683;48.402;10.596;2023-12-20T05:19:36;1.92;;;1.15;;
84444;SDS011;74683;48.402;10.596;2023-12-20T05:22:03;3.78;;;1.40;;
84444;SDS011;74683;48.402;10.596;2023-12-20T05:24:30;3.00;;;1.40;;
84444;SDS011;74683;48.402;10.596;2023-12-20T05:26:57;2.20;;;1.05;;
84444;SDS011;74683;48.402;10.596;2023-12-20T05:29:23;2.72;;;1.38;;
84444;SDS011;74683;48.402;10.596;2023-12-20T05:31:49;2.63;;;1.38;;
84444;SDS011;74683;48.402;10.596;2023-12-20T05:34:16;2.80;;;1.50;;
84444;SDS011;74683;48.402;10.596;2023-12-20T05:36:43;3.38;;;1.02;;
84444;SDS011;74683;48.402;10.596;2023-12-20T05:39:10;3.40;;;1.50;;
84444;SDS011;74683;48.402;10.596;2023-12-20T05:41:36;1.15;;;0.80;;
84444;SDS011;74683;48.402;10.596;2023-12-20T05:44:03;1.45;;;0.90;;
84444;SDS011;74683;48.402;10.596;2023-12-20T05:46:30;2.30;;;1.23;;
84444;SDS011;74683;48.402;10.596;2023-12-20T05:48:56;2.22;;;1.25;;
84444;SDS011;74683;48.402;10.596;2023-12-20T05:51:23;2.88;;;1.45;;
84444;SDS011;74683;48.402;10.596;2023-12-20T05:53:49;3.38;;;1.42;;
84444;SDS011;74683;48.402;10.596;2023-12-20T05:56:16;2.60;;;1.05;;
84444;SDS011;74683;48.402;10.596;2023-12-20T05:58:43;6.30;;;1.48;;
84444;SDS011;74683;48.402;10.596;2023-12-20T06:01:09;1.85;;;1.02;;
84444;SDS011;74683;48.402;10.596;2023-12-20T06:03:36;2.47;;;1.52;;
84444;SDS011;74683;48.402;10.596;2023-12-20T06:06:06;2.20;;;1.30;;
84444;SDS011;74683;48.402;10.596;2023-12-20T06:08:42;3.60;;;1.35;;
84444;SDS011;74683;48.402;10.596;2023-12-20T06:11:10;1.95;;;1.20;;
84444;SDS011;74683;48.402;10.596;2023-12-20T06:13:36;3.47;;;1.60;;
84444;SDS011;74683;48.402;10.596;2023-12-20T06:16:05;2.63;;;1.55;;
84444;SDS011;74683;48.402;10.596;2023-12-20T06:18:32;2.45;;;1.30;;
84444;SDS011;74683;48.402;10.596;2023-12-20T06:20:59;2.30;;;1.40;;
84444;SDS011;74683;48.402;10.596;2023-12-20T06:23:25;1.60;;;1.10;;
84444;SDS011;74683;48.402;10.596;2023-12-20T06:25:53;3.45;;;1.42;;
84444;SDS011;74683;48.402;10.596;2023-12-20T06:28:20;3.55;;;1.52;;
84444;SDS011;74683;48.402;10.596;2023-12-20T06:30:47;4.20;;;1.80;;
84444;SDS011;74683;48.402;10.596;2023-12-20T06:33:15;6.00;;;2.35;;
84444;SDS011;74683;48.402;10.596;2023-12-20T06:35:42;8.15;;;3.60;;
84444;SDS011;74683;48.402;10.596;2023-12-20T06:38:08;5.82;;;2.78;;
84444;SDS011;74683;48.402;10.596;2023-12-20T06:40:35;5.05;;;2.80;;
84444;SDS011;74683;48.402;10.596;2023-12-20T06:43:02;4.25;;;2.15;;
84444;SDS011;74683;48.402;10.596;2023-12-20T06:45:41;3.55;;;1.90;;
84444;SDS011;74683;48.402;10.596;2023-12-20T06:48:08;5.30;;;2.78;;
84444;SDS011;74683;48.402;10.596;2023-12-20T06:50:37;6.55;;;3.30;;
84444;SDS011;74683;48.402;10.596;2023-12-20T06:55:35;4.85;;;2.35;;
84444;SDS011;74683;48.402;10.596;2023-12-20T06:58:04;3.70;;;2.33;;
84444;SDS011;74683;48.402;10.596;2023-12-20T07:00:31;4.57;;;2.50;;
84444;SDS011;74683;48.402;10.596;2023-12-20T07:02:58;6.07;;;2.85;;
84444;SDS011;74683;48.402;10.596;2023-12-20T07:05:25;5.75;;;2.90;;
84444;SDS011;74683;48.402;10.596;2023-12-20T07:07:53;5.70;;;3.22;;
84444;SDS011;74683;48.402;10.596;2023-12-20T07:10:20;4.50;;;2.60;;
84444;SDS011;74683;48.402;10.596;2023-12-20T07:12:46;4.05;;;2.75;;
84444;SDS011;74683;48.402;10.596;2023-12-20T07:15:15;4.30;;;2.20;;
84444;SDS011;74683;48.402;10.596;2023-12-20T07:17:42;11.45;;;3.47;;
84444;SDS011;74683;48.402;10.596;2023-12-20T07:20:10;7.53;;;4.53;;
84444;SDS011;74683;48.402;10.596;2023-12-20T07:22:37;5.03;;;2.42;;
84444;SDS011;74683;48.402;10.596;2023-12-20T07:25:04;6.53;;;3.33;;
84444;SDS011;74683;48.402;10.596;2023-12-20T07:27:31;6.70;;;3.70;;
84444;SDS011;74683;48.402;10.596;2023-12-20T07:29:58;5.40;;;2.45;;
84444;SDS011;74683;48.402;10.596;2023-12-20T07:32:24;7.57;;;3.55;;
84444;SDS011;74683;48.402;10.596;2023-12-20T07:34:51;7.85;;;4.38;;
84444;SDS011;74683;48.402;10.596;2023-12-20T07:37:18;7.50;;;3.85;;
84444;SDS011;74683;48.402;10.596;2023-12-20T07:39:45;7.13;;;4.25;;
84444;SDS011;74683;48.402;10.596;2023-12-20T07:42:11;5.68;;;3.50;;
84444;SDS011;74683;48.402;10.596;2023-12-20T07:44:38;5.75;;;2.85;;
84444;SDS011;74683;48.402;10.596;2023-12-20T07:47:05;6.88;;;3.33;;
84444;SDS011;74683;48.402;10.596;2023-12-20T07:49:35;8.88;;;4.60;;
84444;SDS011;74683;48.402;10.596;2023-12-20T07:52:02;7.07;;;3.47;;
84444;SDS011;74683;48.402;10.596;2023-12-20T07:54:32;3.65;;;2.17;;
84444;SDS011;74683;48.402;10.596;2023-12-20T07:56:58;9.35;;;4.82;;
84444;SDS011;74683;48.402;10.596;2023-12-20T07:59:26;5.15;;;3.03;;
84444;SDS011;74683;48.402;10.596;2023-12-20T08:01:58;6.38;;;3.20;;
84444;SDS011;74683;48.402;10.596;2023-12-20T08:04:28;5.60;;;2.97;;
84444;SDS011;74683;48.402;10.596;2023-12-20T08:06:55;7.50;;;3.47;;
84444;SDS011;74683;48.402;10.596;2023-12-20T08:09:22;8.20;;;4.00;;
84444;SDS011;74683;48.402;10.596;2023-12-20T08:11:51;4.88;;;2.85;;
84444;SDS011;74683;48.402;10.596;2023-12-20T08:14:27;6.97;;;3.67;;
84444;SDS011;74683;48.402;10.596;2023-12-20T08:16:54;7.03;;;3.17;;
84444;SDS011;74683;48.402;10.596;2023-12-20T08:19:22;6.35;;;3.13;;
84444;SDS011;74683;48.402;10.596;2023-12-20T08:21:49;6.63;;;3.15;;
84444;SDS011;74683;48.402;10.596;2023-12-20T08:24:16;6.25;;;3.47;;
84444;SDS011;74683;48.402;10.596;2023-12-20T08:26:42;5.47;;;2.35;;
84444;SDS011;74683;48.402;10.596;2023-12-20T08:29:09;5.13;;;2.45;;
84444;SDS011;74683;48.402;10.596;2023-12-20T08:31:36;5.65;;;3.08;;
84444;SDS011;74683;48.402;10.596;2023-12-20T08:34:02;4.85;;;3.13;;
84444;SDS011;74683;48.402;10.596;2023-12-20T08:36:31;5.85;;;3.70;;
84444;SDS011;74683;48.402;10.596;2023-12-20T08:38:58;4.82;;;2.38;;
84444;SDS011;74683;48.402;10.596;2023-12-20T08:41:26;4.28;;;2.53;;
84444;SDS011;74683;48.402;10.596;2023-12-20T08:43:53;5.30;;;3.30;;
84444;SDS011;74683;48.402;10.596;2023-12-20T08:46:20;6.70;;;2.22;;
84444;SDS011;74683;48.402;10.596;2023-12-20T08:48:47;4.70;;;3.10;;
84444;SDS011;74683;48.402;10.596;2023-12-20T08:51:14;4.82;;;2.35;;
84444;SDS011;74683;48.402;10.596;2023-12-20T08:53:40;8.50;;;2.90;;
84444;SDS011;74683;48.402;10.596;2023-12-20T08:56:07;3.47;;;2.42;;
84444;SDS011;74683;48.402;10.596;2023-12-20T08:58:34;4.50;;;2.17;;
84444;SDS011;74683;48.402;10.596;2023-12-20T09:01:02;5.70;;;2.63;;
84444;SDS011;74683;48.402;10.596;2023-12-20T09:03:29;5.63;;;3.00;;
84444;SDS011;74683;48.402;10.596;2023-12-20T09:05:55;5.80;;;2.85;;
84444;SDS011;74683;48.402;10.596;2023-12-20T09:08:23;4.97;;;2.85;;
84444;SDS011;74683;48.402;10.596;2023-12-20T09:10:49;5.47;;;2.80;;
84444;SDS011;74683;48.402;10.596;2023-12-20T09:13:16;3.80;;;2.65;;
84444;SDS011;74683;48.402;10.596;2023-12-20T09:15:43;5.10;;;2.45;;
84444;SDS011;74683;48.402;10.596;2023-12-20T09:18:10;5.03;;;2.13;;
84444;SDS011;74683;48.402;10.596;2023-12-20T09:20:37;4.32;;;2.33;;
84444;SDS011;74683;48.402;10.596;2023-12-20T09:23:08;4.57;;;2.63;;
84444;SDS011;74683;48.402;10.596;2023-12-20T09:25:35;4.68;;;2.85;;
84444;SDS011;74683;48.402;10.596;2023-12-20T09:28:01;6.78;;;2.50;;
84444;SDS011;74683;48.402;10.596;2023-12-20T09:30:28;5.70;;;2.70;;
84444;SDS011;74683;48.402;10.596;2023-12-20T09:32:55;6.28;;;2.75;;
84444;SDS011;74683;48.402;10.596;2023-12-20T09:35:22;4.53;;;2.72;;
84444;SDS011;74683;48.402;10.596;2023-12-20T09:37:50;8.43;;;3.38;;
84444;SDS011;74683;48.402;10.596;2023-12-20T09:40:20;5.50;;;2.70;;
84444;SDS011;74683;48.402;10.596;2023-12-20T09:42:48;3.50;;;1.92;;
84444;SDS011;74683;48.402;10.596;2023-12-20T09:45:23;4.07;;;2.22;;
84444;SDS011;74683;48.402;10.596;2023-12-20T09:47:49;4.00;;;2.40;;
84444;SDS011;74683;48.402;10.596;2023-12-20T09:50:19;4.00;;;1.92;;
84444;SDS011;74683;48.402;10.596;2023-12-20T09:52:51;3.10;;;2.10;;
84444;SDS011;74683;48.402;10.596;2023-12-20T09:55:19;4.30;;;2.28;;
84444;SDS011;74683;48.402;10.596;2023-12-20T09:57:47;5.20;;;2.65;;
84444;SDS011;74683;48.402;10.596;2023-12-20T10:00:15;5.95;;;1.95;;
84444;SDS011;74683;48.402;10.596;2023-12-20T10:02:56;5.15;;;2.50;;
84444;SDS011;74683;48.402;10.596;2023-12-20T10:05:27;5.32;;;2.10;;
84444;SDS011;74683;48.402;10.596;2023-12-20T10:07:55;2.53;;;1.90;;
84444;SDS011;74683;48.402;10.596;2023-12-20T10:10:23;4.28;;;1.92;;
84444;SDS011;74683;48.402;10.596;2023-12-20T10:13:03;3.92;;;2.20;;
84444;SDS011;74683;48.402;10.596;2023-12-20T10:15:35;3.85;;;1.77;;
84444;SDS011;74683;48.402;10.596;2023-12-20T10:18:03;4.75;;;2.20;;
84444;SDS011;74683;48.402;10.596;2023-12-20T10:20:31;3.55;;;1.67;;
84444;SDS011;74683;48.402;10.596;2023-12-20T10:22:59;3.95;;;2.15;;
84444;SDS011;74683;48.402;10.596;2023-12-20T10:25:28;4.13;;;2.28;;
84444;SDS011;74683;48.402;10.596;2023-12-20T10:30:38;4.38;;;1.80;;
84444;SDS011;74683;48.402;10.596;2023-12-20T10:33:06;4.28;;;1.88;;
84444;SDS011;74683;48.402;10.596;2023-12-20T10:35:38;3.35;;;2.20;;
84444;SDS011;74683;48.402;10.596;2023-12-20T10:38:11;2.53;;;1.40;;
84444;SDS011;74683;48.402;10.596;2023-12-20T10:40:41;2.28;;;1.30;;
84444;SDS011;74683;48.402;10.596;2023-12-20T10:43:09;2.38;;;1.38;;
84444;SDS011;74683;48.402;10.596;2023-12-20T10:45:36;1.30;;;0.80;;
84444;SDS011;74683;48.402;10.596;2023-12-20T10:48:03;1.73;;;1.05;;
84444;SDS011;74683;48.402;10.596;2023-12-20T10:50:31;2.30;;;1.35;;
84444;SDS011;74683;48.402;10.596;2023-12-20T10:52:58;1.30;;;0.88;;
84444;SDS011;74683;48.402;10.596;2023-12-20T10:55:25;2.03;;;1.13;;
84444;SDS011;74683;48.402;10.596;2023-12-20T11:00:50;3.40;;;1.20;;
84444;SDS011;74683;48.402;10.596;2023-12-20T11:03:26;1.77;;;1.17;;
84444;SDS011;74683;48.402;10.596;2023-12-20T11:05:58;1.65;;;0.95;;
84444;SDS011;74683;48.402;10.596;2023-12-20T11:08:54;3.92;;;1.23;;
84444;SDS011;74683;48.402;10.596;2023-12-20T11:11:26;2.63;;;1.15;;
84444;SDS011;74683;48.402;10.596;2023-12-20T11:14:03;2.00;;;1.30;;
84444;SDS011;74683;48.402;10.596;2023-12-20T11:16:38;5.00;;;1.92;;
84444;SDS011;74683;48.402;10.596;2023-12-20T11:19:17;4.40;;;1.67;;
84444;SDS011;74683;48.402;10.596;2023-12-20T11:21:45;1.85;;;0.95;;
84444;SDS011;74683;48.402;10.596;2023-12-20T11:24:12;2.45;;;0.73;;
84444;SDS011;74683;48.402;10.596;2023-12-20T11:26:39;1.55;;;1.02;;
84444;SDS011;74683;48.402;10.596;2023-12-20T11:29:29;1.05;;;0.73;;
84444;SDS011;74683;48.402;10.596;2023-12-20T11:32:01;1.45;;;0.90;;
84444;SDS011;74683;48.402;10.596;2023-12-20T11:34:31;1.75;;;1.00;;
84444;SDS011;74683;48.402;10.596;2023-12-20T11:37:00;2.65;;;0.98;;
84444;SDS011;74683;48.402;10.596;2023-12-20T11:39:29;3.45;;;1.00;;
84444;SDS011;74683;48.402;10.596;2023-12-20T11:41:57;1.27;;;0.90;;
84444;SDS011;74683;48.402;10.596;2023-12-20T11:44:30;1.77;;;0.90;;
84444;SDS011;74683;48.402;10.596;2023-12-20T11:46:57;1.77;;;0.90;;
84444;SDS011;74683;48.402;10.596;2023-12-20T11:49:24;2.42;;;0.70;;
84444;SDS011;74683;48.402;10.596;2023-12-20T11:51:52;1.35;;;0.63;;
84444;SDS011;74683;48.402;10.596;2023-12-20T11:54:18;2.25;;;0.82;;
84444;SDS011;74683;48.402;10.596;2023-12-20T11:56:45;1.45;;;0.88;;
84444;SDS011;74683;48.402;10.596;2023-12-20T11:59:12;1.65;;;0.80;;
84444;SDS011;74683;48.402;10.596;2023-12-20T12:01:49;1.15;;;0.63;;
84444;SDS011;74683;48.402;10.596;2023-12-20T12:04:17;1.27;;;0.90;;
84444;SDS011;74683;48.402;10.596;2023-12-20T12:06:44;1.83;;;0.80;;
84444;SDS011;74683;48.402;10.596;2023-12-20T12:09:11;3.65;;;1.25;;
84444;SDS011;74683;48.402;10.596;2023-12-20T12:11:38;3.20;;;0.70;;
84444;SDS011;74683;48.402;10.596;2023-12-20T12:14:06;1.73;;;0.73;;
84444;SDS011;74683;48.402;10.596;2023-12-20T12:16:33;6.10;;;0.60;;
84444;SDS011;74683;48.402;10.596;2023-12-20T12:19:00;2.55;;;0.93;;
84444;SDS011;74683;48.402;10.596;2023-12-20T12:21:27;2.55;;;0.63;;
84444;SDS011;74683;48.402;10.596;2023-12-20T12:24:08;5.47;;;1.02;;
84444;SDS011;74683;48.402;10.596;2023-12-20T12:26:36;1.67;;;0.70;;
84444;SDS011;74683;48.402;10.596;2023-12-20T12:29:03;3.03;;;1.23;;
84444;SDS011;74683;48.402;10.596;2023-12-20T12:31:29;1.13;;;0.60;;
84444;SDS011;74683;48.402;10.596;2023-12-20T12:33:56;5.20;;;0.90;;
84444;SDS011;74683;48.402;10.596;2023-12-20T12:36:23;3.05;;;0.55;;
84444;SDS011;74683;48.402;10.596;2023-12-20T12:38:50;2.47;;;1.00;;
84444;SDS011;74683;48.402;10.596;2023-12-20T12:41:17;1.10;;;0.32;;
84444;SDS011;74683;48.402;10.596;2023-12-20T12:43:44;2.30;;;0.90;;
84444;SDS011;74683;48.402;10.596;2023-12-20T12:46:10;0.70;;;0.57;;
84444;SDS011;74683;48.402;10.596;2023-12-20T12:48:38;0.47;;;0.30;;
84444;SDS011;74683;48.402;10.596;2023-12-20T12:51:06;1.58;;;0.50;;
84444;SDS011;74683;48.402;10.596;2023-12-20T12:53:39;1.40;;;0.90;;
84444;SDS011;74683;48.402;10.596;2023-12-20T12:56:06;3.70;;;0.68;;
84444;SDS011;74683;48.402;10.596;2023-12-20T12:58:33;1.02;;;0.65;;
84444;SDS011;74683;48.402;10.596;2023-12-20T13:01:00;0.70;;;0.40;;
84444;SDS011;74683;48.402;10.596;2023-12-20T13:03:27;1.98;;;0.75;;
84444;SDS011;74683;48.402;10.596;2023-12-20T13:05:54;1.90;;;0.75;;
84444;SDS011;74683;48.402;10.596;2023-12-20T13:08:21;1.17;;;0.50;;
84444;SDS011;74683;48.402;10.596;2023-12-20T13:10:48;1.35;;;0.50;;
84444;SDS011;74683;48.402;10.596;2023-12-20T13:13:15;4.53;;;1.08;;
84444;SDS011;74683;48.402;10.596;2023-12-20T13:15:41;0.93;;;0.60;;
84444;SDS011;74683;48.402;10.596;2023-12-20T13:18:08;3.60;;;0.55;;
84444;SDS011;74683;48.402;10.596;2023-12-20T13:20:35;7.30;;;1.05;;
84444;SDS011;74683;48.402;10.596;2023-12-20T13:23:02;1.73;;;0.85;;
84444;SDS011;74683;48.402;10.596;2023-12-20T13:25:29;2.35;;;0.75;;
84444;SDS011;74683;48.402;10.596;2023-12-20T13:27:57;1.75;;;0.60;;
84444;SDS011;74683;48.402;10.596;2023-12-20T13:30:26;1.30;;;0.70;;
84444;SDS011;74683;48.402;10.596;2023-12-20T13:32:52;0.95;;;0.52;;
84444;SDS011;74683;48.402;10.596;2023-12-20T13:35:19;1.42;;;1.23;;
84444;SDS011;74683;48.402;10.596;2023-12-20T13:37:46;1.08;;;0.47;;
84444;SDS011;74683;48.402;10.596;2023-12-20T13:40:14;4.72;;;1.10;;
84444;SDS011;74683;48.402;10.596;2023-12-20T13:42:41;1.08;;;0.90;;
84444;SDS011;74683;48.402;10.596;2023-12-20T13:45:08;1.65;;;0.63;;
84444;SDS011;74683;48.402;10.596;2023-12-20T13:47:35;0.82;;;0.40;;
84444;SDS011;74683;48.402;10.596;2023-12-20T13:50:02;2.42;;;0.65;;
84444;SDS011;74683;48.402;10.596;2023-12-20T13:52:30;3.55;;;0.60;;
84444;SDS011;74683;48.402;10.596;2023-12-20T13:54:57;1.40;;;0.73;;
84444;SDS011;74683;48.402;10.596;2023-12-20T13:57:24;1.40;;;0.65;;
84444;SDS011;74683;48.402;10.596;2023-12-20T14:00:09;0.45;;;0.35;;
84444;SDS011;74683;48.402;10.596;2023-12-20T14:02:40;3.60;;;0.60;;
84444;SDS011;74683;48.402;10.596;2023-12-20T14:05:08;1.77;;;0.70;;
84444;SDS011;74683;48.402;10.596;2023-12-20T14:07:36;5.38;;;0.70;;
84444;SDS011;74683;48.402;10.596;2023-12-20T14:10:03;1.20;;;0.43;;
84444;SDS011;74683;48.402;10.596;2023-12-20T14:12:30;5.55;;;0.90;;
84444;SDS011;74683;48.402;10.596;2023-12-20T14:14:58;0.60;;;0.40;;
84444;SDS011;74683;48.402;10.596;2023-12-20T14:17:25;1.50;;;0.55;;
84444;SDS011;74683;48.402;10.596;2023-12-20T14:19:52;2.13;;;0.50;;
84444;SDS011;74683;48.402;10.596;2023-12-20T14:22:21;1.02;;;0.60;;
84444;SDS011;74683;48.402;10.596;2023-12-20T14:24:47;1.00;;;0.60;;
84444;SDS011;74683;48.402;10.596;2023-12-20T14:27:15;1.73;;;0.85;;
84444;SDS011;74683;48.402;10.596;2023-12-20T14:29:41;1.55;;;0.55;;
84444;SDS011;74683;48.402;10.596;2023-12-20T14:32:08;3.20;;;0.55;;
84444;SDS011;74683;48.402;10.596;2023-12-20T14:34:34;1.08;;;0.45;;
84444;SDS011;74683;48.402;10.596;2023-12-20T14:37:01;1.02;;;0.52;;
84444;SDS011;74683;48.402;10.596;2023-12-20T14:39:28;3.67;;;0.68;;
84444;SDS011;74683;48.402;10.596;2023-12-20T14:41:54;4.15;;;0.50;;
84444;SDS011;74683;48.402;10.596;2023-12-20T14:44:21;2.35;;;1.00;;